Ana Sayfa
METAR-TAF:

METAR-TAF

Havaalanları :

Gombe Lawanti International Airport

Gombe, Nijerya

Enlem: 10-18-19N, Boylam: 10-54-31E, yükseklik: 505 m

METAR: eksik

Saat: 09:15 (08:15 UTC)

Tahmin

Rapor saat 17:00 UTC de 15 saat ve 15 dakika önce yapıldı.
Ayın 18'si saat 18 UTC'den ayın 19'si saat 24 UTC'ye kadar geçerli Tahmin
Rüzgar batıdan 2 kt
Görüş mesafesi 10 km veya daha fazla
1500 m altında bulut yok ve kümülonimbus yok
Geçici
ayın 19'si saat 13 UTC'den ayın 19'si saat 20 UTC'ye kadar
1300 ft yükseklikte parçalı bulutlu
1900 ft yükseklikte az bulutlu
gök gürültülü fırtına,

TAF: DNGO 181700Z 1818/1924 27002KT CAVOK TEMPO 1913/1920 TS SCT013 FEW019

4.000'den fazla havaalanı için hava durumu gözlemleri ve tahminleri (METAR ve TAF raporları).

Kullanılabilir istasyonlar harita üzerinde sarı ve kırmızı noktalarla gösterilir.

İstasyonun adını görmek için fareyi noktanın üzerinde gezdirin.

Sonrasında hava gözlem ve tahminlerini görmek için tıklayın.

Haritayı değiştirmek için: yaklaştırmak için siyah artı işaretli yeşil düğmeye ve uzaklaştırmak için de eksi işaretli düğmeye hızla tıklayın; bitişik haritalar için yeşil okları kullanın.


METAR-TAF: